Alfredo Vásquez Cobo International Airport
SKLT : now visible

Airfield :











YOU CAN JOIN US ON...

 
LOGIN :

Register | Disclaimer

   EN    FR    IT 

 









Legend :    VFR   Marginal VFR   IFR   Intensive IFR   Very Intensive IFR
Visi :
Ceiling :
>= 8 km
>= 3000ft
5 to 8 km
1000 to 3000 ft
1500m to 5 km
500 to 1000 ft
800 to 1500m
200 to 500 ft
< 800m
< 200 ft
Symbols :   Thunderstorms  Fog  Heavy snow  Heavy precipitations  Wind > 20 kt






- Airport Elevation : 277 ft
- IATA code : LET


SKLT - Alfredo Vásquez Cobo International

CURRENT METAR :
  • 240400Z VRB02KT 9999 SCT010 BKN080 26/26 A2983

EXPIRED METARs :
  • 240300Z 33005KT 9999 SCT015CB BKN080 26/26 A2984 RMK LTNG/NW
  • 240200Z VRB02KT 9999 TS SCT010CB BKN080 26/26 A2981 RMK CB/W

TAF TAF SKLT
Valid from the 24 at 00:00 until the 25 at 00:00 UTC


232230Z 2400/2424 19006KT 8000 SCT013CB BKN100
TEMPO 2400/2402 TSRA
BECMG 2402/2404 VRB02KT SCT020
TEMPO 2403/2406 5000 RA SCT015CB
TEMPO 2409/2413 3000 BR DZ SCT007
BECMG 2420/2422 09010KT TX35/2418Z TN23/2411Z



MET'MAP, your aeronautical weather chart ! - Copyright ORBIFLY December 2007 - Disclaimer

ORBIFLY MET'MAP TEAM :

Programming & Development : Alexandra Zaïnal
Concept & original design : Baudouin d'Aumeries
Assistance for programming : Marc-Olivier Méhu
Technical & hardware support : Manuel Goepfert

Contact : metmap@orbifly.com




SOURCES & CREDITS :

   NOAA       Earth
Advisory